Time;durP1;ratioP1;P1;durP2;ratioP2;P2;SDS_P1;SDS_P2;PMS_P1;PMS_P2;Temp;Humidity;BMP_temperature;BMP_pressure;BME280_temperature;BME280_humidity;BME280_pressure;Samples;Min_cycle;Max_cycle;Signal;HPM_P1;HPM_P2
2023/06/26 00:01:39;;;;;;;8.60;7.90;;;;;;;16.24;100.00;96303.44;7402439;19;20379;-69
2023/06/26 00:04:07;;;;;;;8.93;8.20;;;;;;;16.76;100.00;96339.91;7401783;19;20369;-69
2023/06/26 00:06:34;;;;;;;10.07;8.73;;;;;;;16.74;100.00;96331.50;7401633;19;20461;-69
2023/06/26 00:09:01;;;;;;;10.30;9.30;;;;;;;16.45;100.00;96314.38;7400798;19;20383;-69
2023/06/26 00:11:30;;;;;;;9.80;8.40;;;;;;;16.48;100.00;96343.00;7401895;19;20392;-69
2023/06/26 00:13:59;;;;;;;9.37;8.57;;;;;;;16.78;100.00;96339.53;7401247;19;20380;-69
2023/06/26 00:16:27;;;;;;;9.23;8.43;;;;;;;16.35;100.00;96267.00;7399871;19;20428;-68
2023/06/26 00:18:54;;;;;;;10.17;9.27;;;;;;;16.32;100.00;96301.66;7399393;19;20421;-69
2023/06/26 00:21:21;;;;;;;9.07;8.30;;;;;;;16.43;100.00;96331.91;7402619;19;20711;-69
2023/06/26 00:23:48;;;;;;;11.37;8.63;;;;;;;16.36;100.00;96324.56;7401470;19;20390;-68
2023/06/26 00:26:15;;;;;;;9.37;8.67;;;;;;;16.30;100.00;96317.25;7402793;19;20407;-69
2023/06/26 00:28:42;;;;;;;8.97;8.17;;;;;;;15.90;100.00;96297.31;7400357;19;20385;-69
2023/06/26 00:31:09;;;;;;;10.30;9.30;;;;;;;15.90;100.00;96286.66;7403506;19;20388;-69
2023/06/26 00:33:36;;;;;;;9.87;8.13;;;;;;;16.06;100.00;96321.91;7399856;19;20393;-69
2023/06/26 00:36:03;;;;;;;11.30;9.00;;;;;;;16.09;100.00;96307.84;7400925;19;20441;-69
2023/06/26 00:38:30;;;;;;;9.33;8.53;;;;;;;15.85;100.00;96316.28;7399066;19;20436;-70
2023/06/26 00:40:57;;;;;;;9.60;8.77;;;;;;;15.69;100.00;96323.69;7403441;19;20388;-68
2023/06/26 00:43:24;;;;;;;13.40;8.50;;;;;;;16.02;100.00;96337.06;7399966;19;20776;-68
2023/06/26 00:45:51;;;;;;;9.73;8.80;;;;;;;16.07;100.00;96330.69;7401003;19;20833;-69
2023/06/26 00:48:19;;;;;;;11.33;9.07;;;;;;;16.05;100.00;96330.28;7401341;19;20396;-68
2023/06/26 00:50:46;;;;;;;10.47;9.50;;;;;;;15.45;100.00;96266.19;7402280;19;20375;-69
2023/06/26 00:53:13;;;;;;;9.30;8.40;;;;;;;15.60;100.00;96321.25;7399946;19;20333;-68
2023/06/26 00:55:40;;;;;;;9.90;8.93;;;;;;;15.88;100.00;96334.22;7400459;19;20769;-68
2023/06/26 00:58:08;;;;;;;9.67;8.67;;;;;;;15.74;100.00;96329.47;7398802;19;20406;-69
2023/06/26 01:00:35;;;;;;;9.27;8.47;;;;;;;15.86;100.00;96301.81;7401795;19;20778;-69
2023/06/26 01:03:02;;;;;;;10.20;9.37;;;;;;;16.01;100.00;96302.78;7400335;19;20385;-68
2023/06/26 01:05:30;;;;;;;10.67;9.77;;;;;;;15.95;100.00;96323.66;7403125;19;20410;-69
2023/06/26 01:07:58;;;;;;;9.53;8.63;;;;;;;15.92;100.00;96319.81;7400323;19;20390;-70
2023/06/26 01:10:28;;;;;;;8.87;8.13;;;;;;;15.90;100.00;96326.66;7402592;19;20379;-69
2023/06/26 01:12:57;;;;;;;9.90;9.00;;;;;;;16.02;100.00;96320.31;7400090;19;20745;-67
2023/06/26 01:15:24;;;;;;;10.50;9.60;;;;;;;15.92;100.00;96322.50;7398851;19;20412;-68
2023/06/26 01:17:51;;;;;;;10.37;9.40;;;;;;;15.81;100.00;96320.81;7401868;19;20356;-67
2023/06/26 01:20:19;;;;;;;11.13;10.13;;;;;;;15.62;100.00;96316.31;7397811;19;20952;-67
2023/06/26 01:23:05;;;;;;;10.03;9.23;;;;;;;15.45;100.00;96322.13;7401892;19;20736;-69
2023/06/26 01:25:51;;;;;;;10.17;9.17;;;;;;;15.62;100.00;96319.78;7401034;19;20944;-70
2023/06/26 01:28:20;;;;;;;10.73;9.73;;;;;;;15.50;100.00;96298.63;7399923;19;20359;-69
2023/06/26 01:30:47;;;;;;;9.77;8.83;;;;;;;15.61;100.00;96309.47;7398109;19;20398;-69
2023/06/26 01:33:15;;;;;;;9.67;8.87;;;;;;;15.38;100.00;96296.16;7401074;19;20906;-69
2023/06/26 01:35:42;;;;;;;11.00;9.90;;;;;;;15.27;100.00;96300.56;7398318;19;20433;-69
2023/06/26 01:38:19;;;;;;;9.53;8.53;;;;;;;15.37;100.00;96314.06;7401521;19;20390;-69
2023/06/26 01:40:47;;;;;;;8.90;8.13;;;;;;;15.35;100.00;96315.50;7401762;19;20421;-69
2023/06/26 01:43:48;;;;;;;9.97;9.00;;;;;;;15.37;100.00;96307.94;7398729;19;20386;-69
2023/06/26 01:46:46;;;;;;;9.53;8.83;;;;;;;15.19;100.00;96299.66;7399687;19;20780;-69
2023/06/26 01:49:32;;;;;;;10.67;9.77;;;;;;;15.03;100.00;96297.13;7400184;19;20409;-69
2023/06/26 01:52:17;;;;;;;10.20;8.50;;;;;;;14.68;100.00;96302.59;7399694;19;20378;-69
2023/06/26 01:55:08;;;;;;;9.40;8.47;;;;;;;14.53;100.00;96294.72;7400045;19;20393;-69
2023/06/26 01:57:36;;;;;;;9.87;9.07;;;;;;;14.66;100.00;96286.22;7400600;19;20925;-69
2023/06/26 02:00:03;;;;;;;10.50;9.50;;;;;;;14.79;100.00;96294.81;7396004;19;20369;-69
2023/06/26 02:02:41;;;;;;;9.83;8.90;;;;;;;14.75;100.00;96292.09;7394628;19;20331;-69
2023/06/26 02:05:12;;;;;;;12.13;9.40;;;;;;;15.01;100.00;96296.72;7396056;19;20434;-69
2023/06/26 02:07:40;;;;;;;9.63;8.73;;;;;;;15.00;100.00;96292.53;7394542;19;20386;-69
2023/06/26 02:10:07;;;;;;;8.73;7.60;;;;;;;15.06;100.00;96292.97;7398185;19;20342;-69
2023/06/26 02:12:35;;;;;;;12.40;8.13;;;;;;;15.11;100.00;96292.69;7395742;19;20369;-69
2023/06/26 02:15:04;;;;;;;11.10;10.00;;;;;;;15.11;100.00;96286.59;7400048;19;20415;-69
2023/06/26 02:17:32;;;;;;;9.97;9.10;;;;;;;14.83;100.00;96268.28;7426395;19;20393;-69
2023/06/26 02:19:59;;;;;;;9.70;8.73;;;;;;;14.86;100.00;96294.94;7427761;19;20353;-69
2023/06/26 02:22:28;;;;;;;11.10;8.80;;;;;;;14.73;100.00;96273.03;7427609;19;20422;-69
2023/06/26 02:24:55;;;;;;;9.70;8.90;;;;;;;14.71;100.00;96267.31;7429024;19;20390;-68
2023/06/26 02:27:22;;;;;;;10.63;9.70;;;;;;;14.79;100.00;96289.47;7428830;19;20390;-68
2023/06/26 02:29:49;;;;;;;9.23;8.50;;;;;;;14.84;100.00;96291.88;7430220;19;20378;-68
2023/06/26 02:32:16;;;;;;;9.90;9.00;;;;;;;15.02;100.00;96300.16;7428688;19;20359;-68
2023/06/26 02:34:43;;;;;;;10.67;9.77;;;;;;;14.95;100.00;96302.69;7430757;19;20343;-68
2023/06/26 02:37:10;;;;;;;10.30;9.30;;;;;;;14.96;100.00;96289.03;7428400;19;20382;-68
2023/06/26 02:39:38;;;;;;;9.87;8.70;;;;;;;14.58;100.00;96300.53;7430517;19;20402;-68
2023/06/26 02:42:07;;;;;;;10.10;9.20;;;;;;;14.39;100.00;96295.19;7416866;19;20371;-69
2023/06/26 02:44:34;;;;;;;13.47;8.80;;;;;;;14.32;100.00;96295.06;7409905;19;20378;-68
2023/06/26 02:47:01;;;;;;;10.33;9.33;;;;;;;13.76;100.00;96247.59;7405384;19;20969;-70
2023/06/26 02:49:29;;;;;;;10.70;9.60;;;;;;;13.85;100.00;96288.78;7407367;19;20387;-69
2023/06/26 02:51:56;;;;;;;10.70;9.60;;;;;;;14.05;100.00;96278.19;7404600;19;20363;-69
2023/06/26 02:54:26;;;;;;;9.47;8.67;;;;;;;14.31;100.00;96281.00;7406727;19;20356;-69
2023/06/26 02:56:59;;;;;;;10.53;9.63;;;;;;;14.22;100.00;96298.28;7401781;19;20432;-68
2023/06/26 02:59:28;;;;;;;9.87;8.87;;;;;;;14.25;100.00;96306.31;7404876;19;20379;-69
2023/06/26 03:01:56;;;;;;;10.53;8.90;;;;;;;13.89;100.00;96286.22;7406102;19;20382;-69
2023/06/26 03:04:29;;;;;;;9.47;8.57;;;;;;;13.97;100.00;96289.78;7404229;19;20374;-69
2023/06/26 03:06:56;;;;;;;9.77;8.87;;;;;;;13.99;100.00;96300.84;7400193;19;20426;-68
2023/06/26 03:09:24;;;;;;;9.77;8.77;;;;;;;14.12;100.00;96299.59;7401166;19;20371;-69
2023/06/26 03:11:52;;;;;;;11.33;9.87;;;;;;;14.00;100.00;96297.81;7401923;19;20901;-69
2023/06/26 03:14:20;;;;;;;10.43;9.40;;;;;;;13.65;100.00;96275.84;7400128;19;20757;-69
2023/06/26 03:16:47;;;;;;;10.10;9.20;;;;;;;13.85;100.00;96293.34;7400187;19;20455;-68
2023/06/26 03:19:14;;;;;;;9.70;8.80;;;;;;;13.89;100.00;96280.91;7399759;19;20822;-69
2023/06/26 03:22:07;;;;;;;11.87;9.60;;;;;;;14.23;100.00;96305.91;7401463;19;20378;-69
2023/06/26 03:24:34;;;;;;;11.20;9.30;;;;;;;13.99;100.00;96279.56;7401525;19;20900;-69
2023/06/26 03:27:01;;;;;;;10.40;8.60;;;;;;;13.89;100.00;96286.22;7399352;19;20408;-69
2023/06/26 03:29:29;;;;;;;9.87;8.87;;;;;;;13.54;100.00;96270.28;7401468;19;20366;-66
2023/06/26 03:31:56;;;;;;;9.60;8.60;;;;;;;13.97;100.00;96282.59;7400154;19;20404;-66
2023/06/26 03:34:23;;;;;;;10.27;9.27;;;;;;;14.02;100.00;96276.22;7401153;19;20385;-66
2023/06/26 03:36:50;;;;;;;13.50;9.07;;;;;;;13.79;100.00;96244.25;7397481;19;20453;-66
2023/06/26 03:39:17;;;;;;;11.60;8.70;;;;;;;14.23;100.00;96291.81;7399755;19;20393;-66
2023/06/26 03:41:44;;;;;;;9.63;7.53;;;;;;;14.30;100.00;96299.97;7399751;19;20374;-66
2023/06/26 03:44:12;;;;;;;9.10;8.20;;;;;;;14.33;100.00;96288.63;7400603;19;20402;-66
2023/06/26 03:46:45;;;;;;;10.43;7.77;;;;;;;14.15;100.00;96280.28;7397510;19;20435;-68
2023/06/26 03:49:12;;;;;;;9.70;8.70;;;;;;;14.14;100.00;96300.00;7401541;19;20391;-68
2023/06/26 03:51:40;;;;;;;10.13;8.13;;;;;;;14.03;100.00;96281.19;7397847;19;20369;-68
2023/06/26 03:54:06;;;;;;;10.20;8.10;;;;;;;14.33;100.00;96305.34;7400724;19;20899;-68
2023/06/26 03:56:33;;;;;;;10.30;9.40;;;;;;;14.13;100.00;96280.63;7397397;19;20390;-68
2023/06/26 03:59:00;;;;;;;10.30;9.40;;;;;;;14.30;100.00;96276.03;7400256;19;20389;-68
2023/06/26 04:01:27;;;;;;;9.03;8.13;;;;;;;14.37;100.00;96298.19;7401264;19;20346;-68
2023/06/26 04:03:54;;;;;;;9.63;8.70;;;;;;;14.18;100.00;96292.88;7400763;19;20441;-68
2023/06/26 04:06:21;;;;;;;8.17;7.37;;;;;;;14.29;100.00;96301.84;7396891;19;20427;-68
2023/06/26 04:08:48;;;;;;;10.20;9.20;;;;;;;14.14;100.00;96273.41;7402486;19;20690;-68
2023/06/26 04:11:15;;;;;;;8.87;8.03;;;;;;;14.37;100.00;96274.25;7398640;19;20892;-68
2023/06/26 04:13:42;;;;;;;11.37;8.30;;;;;;;14.46;100.00;96264.19;7400537;19;20417;-68
2023/06/26 04:16:11;;;;;;;10.23;9.33;;;;;;;14.72;100.00;96284.81;7397995;19;20437;-68
2023/06/26 04:18:38;;;;;;;10.03;8.80;;;;;;;14.79;100.00;96282.25;7400562;19;20379;-68
2023/06/26 04:21:11;;;;;;;10.30;9.17;;;;;;;14.74;100.00;96268.50;7396964;19;20377;-68
2023/06/26 04:23:40;;;;;;;10.87;9.77;;;;;;;14.96;100.00;96298.91;7397238;19;20513;-68
2023/06/26 04:26:08;;;;;;;9.97;9.00;;;;;;;14.62;100.00;96298.69;7397695;19;20425;-68
2023/06/26 04:28:35;;;;;;;11.20;10.20;;;;;;;14.80;100.00;96296.34;7397253;19;20394;-68
2023/06/26 04:31:05;;;;;;;13.83;10.20;;;;;;;15.17;100.00;96291.25;7399153;19;20419;-68
2023/06/26 04:33:32;;;;;;;10.23;9.33;;;;;;;15.04;100.00;96265.94;7397465;19;20462;-68
2023/06/26 04:39:16;;;;;;;11.20;10.20;;;;;;;15.34;100.00;96253.47;7399881;19;20446;-68
2023/06/26 04:41:44;;;;;;;10.27;9.10;;;;;;;15.93;100.00;96300.03;7406680;19;20360;-71
2023/06/26 04:44:11;;;;;;;9.77;8.90;;;;;;;15.99;100.00;96287.13;7409295;19;20343;-70
2023/06/26 04:46:41;;;;;;;10.07;9.17;;;;;;;15.49;100.00;96265.13;7398984;19;20897;-68
2023/06/26 04:49:08;;;;;;;9.73;8.93;;;;;;;16.04;100.00;96283.41;7399177;19;20436;-68
2023/06/26 04:51:42;;;;;;;10.07;9.17;;;;;;;15.96;100.00;96285.19;7397329;19;20402;-68
2023/06/26 04:54:10;;;;;;;9.80;8.90;;;;;;;16.51;100.00;96299.56;7398540;19;20952;-69
2023/06/26 04:56:39;;;;;;;12.10;9.67;;;;;;;16.44;100.00;96298.75;7398599;19;20890;-68
2023/06/26 04:59:06;;;;;;;11.17;10.10;;;;;;;16.22;100.00;96225.69;7397557;19;20764;-69
2023/06/26 05:01:33;;;;;;;11.07;9.97;;;;;;;16.73;100.00;96265.88;7396777;19;20907;-69
2023/06/26 05:04:02;;;;;;;10.47;9.47;;;;;;;17.11;100.00;96296.75;7398222;19;20725;-69
2023/06/26 05:06:29;;;;;;;10.77;9.87;;;;;;;17.27;100.00;96306.44;7397676;19;20395;-68
2023/06/26 05:08:56;;;;;;;11.23;10.23;;;;;;;17.44;100.00;96297.78;7396346;19;20836;-70
2023/06/26 05:11:24;;;;;;;11.33;10.20;;;;;;;17.45;100.00;96299.31;7397496;19;20358;-69
2023/06/26 05:13:51;;;;;;;11.90;10.90;;;;;;;17.34;100.00;96277.06;7395745;19;20372;-69
2023/06/26 05:16:18;;;;;;;11.30;10.30;;;;;;;17.66;100.00;96307.47;7398802;19;20340;-69
2023/06/26 05:18:45;;;;;;;10.73;9.63;;;;;;;17.75;100.00;96295.69;7395012;19;20751;-69
2023/06/26 05:21:12;;;;;;;10.27;9.40;;;;;;;17.68;100.00;96280.38;7395271;19;20385;-69
2023/06/26 05:23:40;;;;;;;10.80;9.67;;;;;;;17.89;100.00;96304.56;7395333;19;20348;-69
2023/06/26 05:26:07;;;;;;;10.17;9.27;;;;;;;18.10;100.00;96308.50;7396552;19;20395;-68
2023/06/26 05:28:36;;;;;;;11.40;10.47;;;;;;;18.05;100.00;96290.16;7394553;19;20431;-69
2023/06/26 05:31:04;;;;;;;14.30;12.93;;;;;;;18.02;100.00;96302.34;7396690;19;20356;-69
2023/06/26 05:33:35;;;;;;;11.57;10.47;;;;;;;18.08;100.00;96300.88;7395143;19;20378;-69
2023/06/26 05:36:04;;;;;;;16.73;10.80;;;;;;;18.00;100.00;96289.34;7396454;19;20404;-69
2023/06/26 05:38:31;;;;;;;10.23;9.30;;;;;;;18.13;100.00;96302.41;7396440;19;20360;-69
2023/06/26 05:40:58;;;;;;;10.80;9.90;;;;;;;18.28;100.00;96296.72;7397098;19;20356;-69
2023/06/26 05:43:25;;;;;;;10.10;9.17;;;;;;;18.36;100.00;96281.47;7395036;19;20740;-69
2023/06/26 05:45:59;;;;;;;10.30;9.50;;;;;;;18.70;100.00;96308.78;7397498;19;20379;-69
2023/06/26 05:48:26;;;;;;;10.87;10.00;;;;;;;18.44;100.00;96307.13;7392940;19;20371;-69
2023/06/26 05:50:54;;;;;;;10.77;9.87;;;;;;;18.71;100.00;96309.53;7396822;19;20706;-69
2023/06/26 05:53:21;;;;;;;11.10;9.77;;;;;;;18.74;100.00;96309.53;7395272;19;20904;-69
2023/06/26 05:55:48;;;;;;;11.07;10.27;;;;;;;18.69;100.00;96312.56;7396583;19;20374;-69
2023/06/26 05:58:17;;;;;;;12.00;11.00;;;;;;;18.80;100.00;96294.63;7397031;19;20347;-69
2023/06/26 06:00:43;;;;;;;10.77;9.90;;;;;;;18.97;100.00;96292.38;7395277;19;20947;-69
2023/06/26 06:03:10;;;;;;;10.60;9.70;;;;;;;19.24;100.00;96308.84;7394878;19;20940;-69
2023/06/26 06:05:38;;;;;;;10.80;9.80;;;;;;;19.54;100.00;96306.53;7396602;19;20409;-69
2023/06/26 06:08:05;;;;;;;10.40;9.60;;;;;;;19.89;100.00;96297.69;7394941;19;20400;-69
2023/06/26 06:10:31;;;;;;;10.57;9.57;;;;;;;20.31;100.00;96304.84;7394443;19;20464;-69
2023/06/26 06:12:58;;;;;;;11.30;10.20;;;;;;;20.31;100.00;96304.84;7396527;19;20341;-69
2023/06/26 06:15:25;;;;;;;10.60;9.67;;;;;;;20.80;100.00;96305.78;7401029;19;20713;-69
2023/06/26 06:17:56;;;;;;;10.03;9.10;;;;;;;21.14;100.00;96299.81;7402688;19;20926;-69
2023/06/26 06:20:23;;;;;;;10.10;9.20;;;;;;;21.13;100.00;96284.84;7399282;19;20457;-69
2023/06/26 06:22:50;;;;;;;11.03;10.03;;;;;;;21.57;100.00;96318.31;7402594;19;20420;-69
2023/06/26 06:25:17;;;;;;;10.00;9.20;;;;;;;21.54;100.00;96279.53;7402899;19;20377;-69
2023/06/26 06:27:44;;;;;;;12.27;9.83;;;;;;;21.90;100.00;96301.47;7404295;19;20345;-68
2023/06/26 06:30:11;;;;;;;10.47;9.57;;;;;;;21.68;100.00;96300.91;7398496;19;20507;-69
2023/06/26 06:32:39;;;;;;;11.27;10.23;;;;;;;21.98;100.00;96307.53;7402972;19;20396;-69
2023/06/26 06:35:09;;;;;;;11.30;10.30;;;;;;;21.37;100.00;96291.97;7401614;19;20351;-69
2023/06/26 06:37:38;;;;;;;11.20;10.17;;;;;;;21.66;100.00;96310.56;7403122;19;20389;-69
2023/06/26 06:40:06;;;;;;;9.87;8.87;;;;;;;21.71;100.00;96312.81;7398561;19;20438;-69
2023/06/26 06:42:33;;;;;;;10.60;9.70;;;;;;;22.21;100.00;96298.88;7402904;19;20416;-69
2023/06/26 06:45:03;;;;;;;11.23;10.27;;;;;;;22.05;100.00;96297.50;7402437;19;20915;-69
2023/06/26 06:47:30;;;;;;;11.03;10.10;;;;;;;22.02;100.00;96314.41;7402830;19;20371;-69
2023/06/26 06:49:57;;;;;;;12.57;11.27;;;;;;;21.82;100.00;96287.31;7398752;19;20425;-69
2023/06/26 06:52:24;;;;;;;11.03;9.93;;;;;;;21.88;100.00;96289.56;7402748;19;20410;-69
2023/06/26 06:54:53;;;;;;;10.70;9.80;;;;;;;22.47;100.00;96311.63;7401092;19;20365;-69
2023/06/26 06:57:24;;;;;;;16.63;14.37;;;;;;;22.54;100.00;96295.34;7402714;19;20413;-69
2023/06/26 06:59:51;;;;;;;15.50;12.90;;;;;;;23.16;100.00;96309.56;7400777;19;20447;-69
2023/06/26 07:02:18;;;;;;;26.93;11.17;;;;;;;23.68;100.00;96312.59;7402416;19;20461;-69
2023/06/26 07:04:45;;;;;;;11.20;10.03;;;;;;;23.57;100.00;96322.78;7401309;19;20373;-70
2023/06/26 07:07:15;;;;;;;10.20;9.40;;;;;;;23.41;100.00;96303.78;7402760;19;20872;-70
2023/06/26 07:09:42;;;;;;;10.10;9.20;;;;;;;23.57;100.00;96299.28;7401077;19;20480;-70
2023/06/26 07:12:09;;;;;;;9.47;8.77;;;;;;;23.84;100.00;96295.72;7402283;19;20987;-70
2023/06/26 07:14:36;;;;;;;10.53;9.63;;;;;;;24.03;100.00;96289.56;7400770;19;20377;-70
2023/06/26 07:17:03;;;;;;;11.30;10.20;;;;;;;24.09;100.00;96300.66;7402407;19;20925;-70
2023/06/26 07:19:30;;;;;;;10.80;9.70;;;;;;;24.37;100.00;96302.84;7400881;19;20981;-70
2023/06/26 07:21:57;;;;;;;10.50;8.90;;;;;;;24.74;97.43;96309.78;7396808;19;20759;-70
2023/06/26 07:24:24;;;;;;;9.43;8.53;;;;;;;25.11;93.88;96298.94;7401127;19;20505;-69
2023/06/26 07:26:51;;;;;;;9.80;9.03;;;;;;;24.90;95.44;96290.13;7397235;19;20373;-70
2023/06/26 07:29:17;;;;;;;9.93;9.13;;;;;;;24.97;93.90;96271.03;7399265;19;20403;-70
2023/06/26 07:31:45;;;;;;;9.70;8.40;;;;;;;25.62;89.28;96310.88;7399064;19;20389;-70
2023/06/26 07:34:12;;;;;;;8.73;7.93;;;;;;;25.50;85.91;96269.00;7400461;19;21183;-70
2023/06/26 07:36:39;;;;;;;9.07;8.03;;;;;;;26.18;83.14;96313.34;7398858;19;20772;-70
2023/06/26 07:39:06;;;;;;;10.33;9.30;;;;;;;26.30;81.86;96299.03;7395905;19;21082;-70
2023/06/26 07:41:33;;;;;;;9.10;8.30;;;;;;;26.45;81.57;96300.19;7396499;19;20415;-70
2023/06/26 07:44:00;;;;;;;9.40;8.50;;;;;;;26.52;76.13;96299.22;7400437;19;20338;-70
2023/06/26 07:46:27;;;;;;;10.00;7.83;;;;;;;26.27;75.89;96294.47;7398755;19;20357;-70
2023/06/26 07:48:54;;;;;;;8.67;7.97;;;;;;;26.42;76.23;96286.72;7398987;19;20493;-70
2023/06/26 07:51:21;;;;;;;8.73;8.03;;;;;;;26.67;71.80;96294.16;7398372;19;20385;-70
2023/06/26 07:53:48;;;;;;;8.53;7.77;;;;;;;26.79;71.07;96304.25;7399677;19;20538;-70
2023/06/26 07:56:15;;;;;;;8.77;7.97;;;;;;;26.79;68.17;96296.88;7398566;19;20373;-70
2023/06/26 07:58:42;;;;;;;8.10;7.40;;;;;;;26.97;68.72;96290.88;7399362;19;20395;-70
2023/06/26 08:01:09;;;;;;;8.97;8.13;;;;;;;27.05;67.87;96308.50;7396728;19;20902;-70
2023/06/26 08:03:36;;;;;;;9.20;8.40;;;;;;;27.16;68.29;96278.31;7399946;19;20410;-69
2023/06/26 08:06:03;;;;;;;8.10;7.40;;;;;;;27.61;66.82;96297.00;7399470;19;20396;-70
2023/06/26 08:08:30;;;;;;;11.93;8.37;;;;;;;27.72;64.57;96279.63;7398848;19;20380;-70
2023/06/26 08:10:57;;;;;;;7.47;6.80;;;;;;;28.08;64.79;96301.69;7398230;19;20709;-70
2023/06/26 08:13:25;;;;;;;8.90;8.10;;;;;;;27.30;62.66;96282.53;7399395;19;20358;-70
2023/06/26 08:15:52;;;;;;;10.47;8.57;;;;;;;27.71;63.80;96280.84;7397986;19;20384;-70
2023/06/26 08:18:19;;;;;;;8.57;7.90;;;;;;;28.05;62.46;96297.13;7409194;19;20399;-69
2023/06/26 08:20:46;;;;;;;8.37;7.67;;;;;;;27.58;61.42;96295.19;7419575;19;20371;-70
2023/06/26 08:23:12;;;;;;;8.57;7.87;;;;;;;27.91;61.70;96303.03;7421156;19;20378;-69
2023/06/26 08:25:39;;;;;;;7.97;7.27;;;;;;;27.54;60.01;96286.41;7410078;19;20387;-70
2023/06/26 08:28:07;;;;;;;8.90;8.20;;;;;;;27.56;61.18;96302.25;7400149;19;20388;-70
2023/06/26 08:30:34;;;;;;;9.10;8.30;;;;;;;27.90;60.00;96283.25;7396359;19;20440;-70
2023/06/26 08:33:02;;;;;;;8.20;7.47;;;;;;;28.18;60.01;96300.56;7399689;19;20379;-70
2023/06/26 08:35:29;;;;;;;9.20;8.30;;;;;;;27.91;58.21;96298.38;7398256;19;20405;-70
2023/06/26 08:37:56;;;;;;;8.97;8.07;;;;;;;27.71;59.25;96294.41;7399136;19;20374;-70
2023/06/26 08:40:23;;;;;;;7.70;7.00;;;;;;;28.10;58.56;96282.19;7395973;19;20966;-70
2023/06/26 08:43:14;;;;;;;8.13;7.27;;;;;;;28.05;58.12;96278.09;7398083;19;20376;-70
2023/06/26 08:45:41;;;;;;;8.60;7.80;;;;;;;28.79;59.03;96296.38;7396682;19;20383;-70
2023/06/26 08:48:09;;;;;;;9.20;8.40;;;;;;;28.18;55.68;96284.22;7394561;19;20384;-70
2023/06/26 08:50:38;;;;;;;9.50;8.60;;;;;;;27.80;56.93;96270.81;7393937;19;20442;-70
2023/06/26 08:53:34;;;;;;;8.90;8.20;;;;;;;27.38;58.00;96284.59;7394896;19;20416;-70
2023/06/26 08:56:02;;;;;;;8.70;7.90;;;;;;;27.22;56.92;96281.25;7394329;19;20883;-70
2023/06/26 08:58:29;;;;;;;9.53;8.60;;;;;;;27.90;57.02;96274.34;7395250;19;20361;-69
2023/06/26 09:00:57;;;;;;;8.97;8.17;;;;;;;28.16;58.32;96274.97;7393402;19;20382;-70
2023/06/26 09:03:25;;;;;;;8.73;8.07;;;;;;;28.37;57.30;96276.19;7395630;19;20395;-70
2023/06/26 09:05:52;;;;;;;8.83;8.13;;;;;;;28.88;57.46;96263.03;7393946;19;20342;-70
2023/06/26 09:08:19;;;;;;;9.50;8.80;;;;;;;28.97;56.14;96249.41;7395498;19;20407;-70
2023/06/26 09:10:46;;;;;;;8.37;7.67;;;;;;;28.88;57.07;96270.44;7393666;19;20380;-70
2023/06/26 09:13:13;;;;;;;9.43;8.63;;;;;;;28.51;56.97;96262.06;7395512;19;20402;-70
2023/06/26 09:15:55;;;;;;;10.10;9.27;;;;;;;28.09;56.92;96258.94;7393949;19;20458;-70
2023/06/26 09:18:22;;;;;;;8.37;7.57;;;;;;;28.39;54.85;96262.91;7396067;19;20415;-70
2023/06/26 09:20:50;;;;;;;8.77;7.90;;;;;;;28.23;56.35;96264.63;7393446;19;20407;-70
2023/06/26 09:23:18;;;;;;;9.80;8.90;;;;;;;28.12;56.12;96264.22;7396942;19;20913;-70
2023/06/26 09:25:47;;;;;;;10.17;9.27;;;;;;;28.02;56.87;96259.16;7399088;19;20878;-70
2023/06/26 09:28:14;;;;;;;9.20;8.50;;;;;;;28.63;58.34;96244.13;7398633;19;20379;-71
2023/06/26 09:30:42;;;;;;;9.40;8.40;;;;;;;28.69;56.60;96245.06;7395975;19;20375;-71
2023/06/26 09:33:16;;;;;;;10.07;9.17;;;;;;;29.30;57.11;96259.81;7394542;19;20764;-70
2023/06/26 09:35:44;;;;;;;11.70;8.43;;;;;;;28.94;56.04;96250.31;7396713;19;20377;-70
2023/06/26 09:38:12;;;;;;;7.90;7.20;;;;;;;29.19;54.27;96254.78;7394919;19;20391;-70
2023/06/26 09:40:40;;;;;;;9.67;8.87;;;;;;;28.63;54.55;96231.28;7397811;19;20813;-70
2023/06/26 09:43:13;;;;;;;9.77;8.97;;;;;;;29.13;54.57;96232.09;7396631;19;20355;-71
2023/06/26 09:45:40;;;;;;;9.00;8.13;;;;;;;28.84;54.50;96254.94;7396357;19;20399;-70
2023/06/26 09:48:08;;;;;;;9.10;8.30;;;;;;;29.21;54.00;96246.91;7396136;19;20402;-70
2023/06/26 09:50:36;;;;;;;8.00;7.40;;;;;;;29.16;54.05;96233.16;7393003;19;20439;-70
2023/06/26 09:53:10;;;;;;;10.30;9.30;;;;;;;29.73;53.52;96259.56;7396157;19;20353;-71
2023/06/26 09:55:38;;;;;;;9.20;8.40;;;;;;;30.12;52.97;96261.84;7396748;19;20356;-70
2023/06/26 09:58:05;;;;;;;8.43;7.80;;;;;;;29.50;51.70;96251.22;7395043;19;20383;-70
2023/06/26 10:00:32;;;;;;;9.83;8.93;;;;;;;28.49;52.83;96226.38;7394789;19;20439;-70
2023/06/26 10:03:00;;;;;;;8.83;8.10;;;;;;;29.08;52.74;96249.75;7395767;19;20408;-70
2023/06/26 10:05:27;;;;;;;8.20;7.50;;;;;;;28.81;52.30;96244.97;7396606;19;20358;-70
2023/06/26 10:07:55;;;;;;;9.03;8.27;;;;;;;29.31;52.95;96234.81;7394701;19;20371;-70
2023/06/26 10:10:23;;;;;;;8.03;7.40;;;;;;;29.18;54.34;96234.19;7394694;19;20999;-68
2023/06/26 10:12:58;;;;;;;8.50;7.80;;;;;;;29.94;52.32;96244.28;7394448;19;20368;-69
2023/06/26 10:15:25;;;;;;;7.90;7.17;;;;;;;30.20;50.10;96241.97;7392136;19;20359;-68
2023/06/26 10:17:56;;;;;;;8.20;7.50;;;;;;;29.88;49.97;96229.72;7395383;19;20384;-68
2023/06/26 10:20:25;;;;;;;8.63;7.93;;;;;;;29.76;49.23;96219.72;7391621;19;20960;-68
2023/06/26 10:22:55;;;;;;;7.43;6.83;;;;;;;30.00;49.36;96217.13;7394048;19;20383;-68
2023/06/26 10:25:24;;;;;;;8.10;7.40;;;;;;;30.06;48.36;96217.31;7394903;19;20876;-69
2023/06/26 10:27:56;;;;;;;8.70;8.00;;;;;;;30.63;48.89;96233.84;7395335;19;20347;-69
2023/06/26 10:30:27;;;;;;;8.63;7.93;;;;;;;29.69;48.05;96212.63;7393650;19;20432;-69
2023/06/26 10:32:55;;;;;;;9.07;8.23;;;;;;;29.31;48.01;96195.94;7395462;19;20368;-69
2023/06/26 10:35:24;;;;;;;8.07;7.07;;;;;;;29.97;47.76;96202.44;7394457;19;20362;-68
2023/06/26 10:37:51;;;;;;;8.40;7.60;;;;;;;30.13;47.29;96219.72;7396802;19;20379;-68
2023/06/26 10:40:25;;;;;;;9.10;7.47;;;;;;;29.54;46.36;96208.25;7394082;19;20480;-68
2023/06/26 10:43:06;;;;;;;7.60;6.90;;;;;;;29.98;45.69;96212.13;7393978;19;20392;-68
2023/06/26 10:45:34;;;;;;;8.10;7.40;;;;;;;30.12;47.10;96205.31;7394866;19;20372;-68
2023/06/26 10:48:01;;;;;;;7.83;6.70;;;;;;;30.30;46.75;96180.69;7393392;19;20408;-68
2023/06/26 10:50:35;;;;;;;8.43;7.17;;;;;;;30.83;44.71;96221.16;7394687;19;20947;-70
2023/06/26 10:53:27;;;;;;;7.53;6.93;;;;;;;29.93;45.89;96222.91;7393278;19;20925;-70
2023/06/26 10:55:56;;;;;;;8.30;7.50;;;;;;;30.20;46.20;96211.97;7395973;19;20372;-70
2023/06/26 10:58:43;;;;;;;8.00;7.20;;;;;;;30.37;46.18;96206.91;7393923;19;20368;-70
2023/06/26 11:01:21;;;;;;;7.33;6.63;;;;;;;30.22;45.72;96195.16;7396411;19;20506;-69
2023/06/26 11:03:57;;;;;;;8.40;7.70;;;;;;;30.42;45.13;96198.09;7401982;19;20908;-69
2023/06/26 11:06:24;;;;;;;8.10;7.30;;;;;;;30.47;45.10;96186.56;7401418;19;20356;-70
2023/06/26 11:09:00;;;;;;;7.73;7.03;;;;;;;30.88;45.84;96200.66;7402701;19;20424;-69
2023/06/26 11:11:53;;;;;;;7.37;6.67;;;;;;;31.00;45.32;96191.50;7402852;19;20372;-69
2023/06/26 11:14:22;;;;;;;9.37;7.13;;;;;;;31.46;45.28;96193.91;7401748;19;20939;-69
2023/06/26 11:16:49;;;;;;;8.67;7.97;;;;;;;30.52;44.35;96188.66;7402061;19;20443;-69
2023/06/26 11:19:18;;;;;;;9.03;8.30;;;;;;;30.57;44.37;96182.56;7400137;19;20413;-69
2023/06/26 11:21:45;;;;;;;8.53;7.73;;;;;;;30.78;44.44;96182.81;7401886;19;20391;-69
2023/06/26 11:24:13;;;;;;;7.37;6.77;;;;;;;30.70;44.82;96193.31;7401279;19;20388;-69
2023/06/26 11:26:42;;;;;;;7.90;7.30;;;;;;;30.73;44.36;96188.91;7422561;19;20357;-70
2023/06/26 11:29:11;;;;;;;8.80;8.00;;;;;;;31.35;43.74;96188.22;7431097;19;20401;-70
2023/06/26 11:31:40;;;;;;;8.63;7.87;;;;;;;32.08;43.69;96201.31;7434370;19;20421;-70
2023/06/26 11:34:13;;;;;;;7.60;6.97;;;;;;;31.47;42.74;96174.31;7409858;19;20700;-69
2023/06/26 11:36:42;;;;;;;7.60;7.00;;;;;;;31.10;42.63;96173.03;7399131;19;20413;-69